sensor_id;sensor_type;location;lat;lon;timestamp;pressure;altitude;pressure_sealevel;temperature;humidity
62708;BME280;48769;51.624;5.886;2022-09-29T00:02:08;99838.97;;;8.04;100.00
62708;BME280;48769;51.624;5.886;2022-09-29T00:04:34;99834.53;;;8.04;100.00
62708;BME280;48769;51.624;5.886;2022-09-29T00:06:59;99837.28;;;8.03;100.00
62708;BME280;48769;51.624;5.886;2022-09-29T00:09:24;99839.03;;;8.02;100.00
62708;BME280;48769;51.624;5.886;2022-09-29T00:11:53;99838.19;;;8.02;100.00
62708;BME280;48769;51.624;5.886;2022-09-29T00:14:18;99838.28;;;8.00;100.00
62708;BME280;48769;51.624;5.886;2022-09-29T00:16:44;99836.56;;;7.99;100.00
62708;BME280;48769;51.624;5.886;2022-09-29T00:19:10;99831.47;;;7.96;100.00
62708;BME280;48769;51.624;5.886;2022-09-29T00:21:35;99828.28;;;7.91;100.00
62708;BME280;48769;51.624;5.886;2022-09-29T00:24:01;99824.97;;;7.87;100.00
62708;BME280;48769;51.624;5.886;2022-09-29T00:26:26;99828.81;;;7.82;100.00
62708;BME280;48769;51.624;5.886;2022-09-29T00:28:54;99825.22;;;7.83;100.00
62708;BME280;48769;51.624;5.886;2022-09-29T00:31:22;99828.63;;;7.85;100.00
62708;BME280;48769;51.624;5.886;2022-09-29T00:33:47;99831.16;;;7.86;100.00
62708;BME280;48769;51.624;5.886;2022-09-29T00:36:15;99830.13;;;7.89;100.00
62708;BME280;48769;51.624;5.886;2022-09-29T00:38:41;99831.94;;;7.88;100.00
62708;BME280;48769;51.624;5.886;2022-09-29T00:41:12;99831.09;;;7.88;100.00
62708;BME280;48769;51.624;5.886;2022-09-29T00:44:02;99825.41;;;7.80;100.00
62708;BME280;48769;51.624;5.886;2022-09-29T00:46:36;99823.72;;;7.79;100.00
62708;BME280;48769;51.624;5.886;2022-09-29T00:49:10;99826.34;;;7.79;100.00
62708;BME280;48769;51.624;5.886;2022-09-29T00:51:39;99825.50;;;7.78;100.00
62708;BME280;48769;51.624;5.886;2022-09-29T00:54:06;99824.72;;;7.76;100.00
62708;BME280;48769;51.624;5.886;2022-09-29T00:56:33;99821.44;;;7.72;100.00
62708;BME280;48769;51.624;5.886;2022-09-29T00:59:02;99825.78;;;7.73;100.00
62708;BME280;48769;51.624;5.886;2022-09-29T01:01:30;99828.47;;;7.72;100.00
62708;BME280;48769;51.624;5.886;2022-09-29T01:04:17;99825.94;;;7.70;100.00
62708;BME280;48769;51.624;5.886;2022-09-29T01:06:52;99829.47;;;7.69;100.00
62708;BME280;48769;51.624;5.886;2022-09-29T01:09:23;99820.06;;;7.65;100.00
62708;BME280;48769;51.624;5.886;2022-09-29T01:11:49;99817.78;;;7.59;100.00
62708;BME280;48769;51.624;5.886;2022-09-29T01:14:19;99818.97;;;7.54;100.00
62708;BME280;48769;51.624;5.886;2022-09-29T01:16:45;99821.69;;;7.52;100.00
62708;BME280;48769;51.624;5.886;2022-09-29T01:19:16;99819.91;;;7.53;100.00
62708;BME280;48769;51.624;5.886;2022-09-29T01:22:19;99822.63;;;7.51;100.00
62708;BME280;48769;51.624;5.886;2022-09-29T01:24:54;99820.00;;;7.51;100.00
62708;BME280;48769;51.624;5.886;2022-09-29T01:30:11;99815.66;;;7.50;100.00
62708;BME280;48769;51.624;5.886;2022-09-29T01:32:52;99825.34;;;7.49;100.00
62708;BME280;48769;51.624;5.886;2022-09-29T01:35:25;99821.09;;;7.47;100.00
62708;BME280;48769;51.624;5.886;2022-09-29T01:38:13;99830.06;;;7.43;100.00
62708;BME280;48769;51.624;5.886;2022-09-29T01:41:09;99826.09;;;7.36;100.00
62708;BME280;48769;51.624;5.886;2022-09-29T01:43:42;99824.91;;;7.25;100.00
62708;BME280;48769;51.624;5.886;2022-09-29T01:46:15;99831.00;;;7.26;100.00
62708;BME280;48769;51.624;5.886;2022-09-29T01:48:49;99827.53;;;7.25;100.00
62708;BME280;48769;51.624;5.886;2022-09-29T01:51:19;99831.00;;;7.26;100.00
62708;BME280;48769;51.624;5.886;2022-09-29T01:53:52;99835.56;;;7.22;100.00
62708;BME280;48769;51.624;5.886;2022-09-29T01:56:33;99825.41;;;7.16;100.00
62708;BME280;48769;51.624;5.886;2022-09-29T01:59:10;99830.03;;;7.11;100.00
62708;BME280;48769;51.624;5.886;2022-09-29T02:01:40;99836.06;;;7.13;100.00
62708;BME280;48769;51.624;5.886;2022-09-29T02:04:14;99830.81;;;7.13;100.00
62708;BME280;48769;51.624;5.886;2022-09-29T02:06:44;99834.53;;;7.09;100.00
62708;BME280;48769;51.624;5.886;2022-09-29T02:09:18;99838.06;;;7.08;100.00
62708;BME280;48769;51.624;5.886;2022-09-29T02:11:50;99839.78;;;7.09;100.00
62708;BME280;48769;51.624;5.886;2022-09-29T02:14:21;99844.09;;;7.10;100.00
62708;BME280;48769;51.624;5.886;2022-09-29T02:16:53;99832.81;;;7.08;100.00
62708;BME280;48769;51.624;5.886;2022-09-29T02:19:24;99849.53;;;7.07;100.00
62708;BME280;48769;51.624;5.886;2022-09-29T02:21:51;99843.50;;;7.05;100.00
62708;BME280;48769;51.624;5.886;2022-09-29T02:24:19;99841.06;;;7.02;100.00
62708;BME280;48769;51.624;5.886;2022-09-29T02:26:46;99849.09;;;6.99;100.00
62708;BME280;48769;51.624;5.886;2022-09-29T02:29:12;99849.25;;;6.96;100.00
62708;BME280;48769;51.624;5.886;2022-09-29T02:31:38;99850.16;;;6.95;100.00
62708;BME280;48769;51.624;5.886;2022-09-29T02:34:05;99849.47;;;6.91;100.00
62708;BME280;48769;51.624;5.886;2022-09-29T02:36:57;99847.00;;;6.88;100.00
62708;BME280;48769;51.624;5.886;2022-09-29T02:45:06;99839.69;;;6.77;100.00
62708;BME280;48769;51.624;5.886;2022-09-29T02:52:55;99839.94;;;6.73;100.00
62708;BME280;48769;51.624;5.886;2022-09-29T02:55:31;99840.09;;;6.70;100.00
62708;BME280;48769;51.624;5.886;2022-09-29T02:58:22;99841.84;;;6.69;100.00
62708;BME280;48769;51.624;5.886;2022-09-29T03:00:52;99838.47;;;6.67;100.00
62708;BME280;48769;51.624;5.886;2022-09-29T03:03:18;99843.88;;;6.64;100.00
62708;BME280;48769;51.624;5.886;2022-09-29T03:05:43;99839.72;;;6.60;100.00
62708;BME280;48769;51.624;5.886;2022-09-29T03:08:09;99844.19;;;6.58;100.00
62708;BME280;48769;51.624;5.886;2022-09-29T03:10:34;99837.25;;;6.57;100.00
62708;BME280;48769;51.624;5.886;2022-09-29T03:12:59;99838.00;;;6.59;100.00
62708;BME280;48769;51.624;5.886;2022-09-29T03:15:25;99843.09;;;6.62;100.00
62708;BME280;48769;51.624;5.886;2022-09-29T03:17:54;99834.63;;;6.57;100.00
62708;BME280;48769;51.624;5.886;2022-09-29T03:20:20;99835.84;;;6.50;100.00
62708;BME280;48769;51.624;5.886;2022-09-29T03:22:46;99838.66;;;6.47;100.00
62708;BME280;48769;51.624;5.886;2022-09-29T03:25:14;99830.94;;;6.44;100.00
62708;BME280;48769;51.624;5.886;2022-09-29T03:27:40;99837.88;;;6.45;100.00
62708;BME280;48769;51.624;5.886;2022-09-29T03:30:06;99835.16;;;6.46;100.00
62708;BME280;48769;51.624;5.886;2022-09-29T03:32:32;99833.22;;;6.50;100.00
62708;BME280;48769;51.624;5.886;2022-09-29T03:34:57;99840.19;;;6.51;100.00
62708;BME280;48769;51.624;5.886;2022-09-29T03:37:23;99834.94;;;6.51;100.00
62708;BME280;48769;51.624;5.886;2022-09-29T03:39:48;99842.81;;;6.51;100.00
62708;BME280;48769;51.624;5.886;2022-09-29T03:42:13;99837.56;;;6.51;100.00
62708;BME280;48769;51.624;5.886;2022-09-29T03:44:39;99840.25;;;6.49;100.00
62708;BME280;48769;51.624;5.886;2022-09-29T03:47:04;99840.25;;;6.49;100.00
62708;BME280;48769;51.624;5.886;2022-09-29T03:49:29;99842.97;;;6.48;100.00
62708;BME280;48769;51.624;5.886;2022-09-29T03:51:54;99842.97;;;6.48;100.00
62708;BME280;48769;51.624;5.886;2022-09-29T03:54:20;99846.44;;;6.48;100.00
62708;BME280;48769;51.624;5.886;2022-09-29T03:56:45;99849.91;;;6.49;100.00
62708;BME280;48769;51.624;5.886;2022-09-29T03:59:10;99844.81;;;6.46;100.00
62708;BME280;48769;51.624;5.886;2022-09-29T04:01:36;99849.22;;;6.45;100.00
62708;BME280;48769;51.624;5.886;2022-09-29T04:04:02;99853.63;;;6.45;100.00
62708;BME280;48769;51.624;5.886;2022-09-29T04:06:28;99849.31;;;6.44;100.00
62708;BME280;48769;51.624;5.886;2022-09-29T04:08:53;99851.16;;;6.42;100.00
62708;BME280;48769;51.624;5.886;2022-09-29T04:11:19;99854.63;;;6.42;100.00
62708;BME280;48769;51.624;5.886;2022-09-29T04:13:44;99855.59;;;6.40;100.00
62708;BME280;48769;51.624;5.886;2022-09-29T04:16:09;99863.41;;;6.41;100.00
62708;BME280;48769;51.624;5.886;2022-09-29T04:18:35;99866.09;;;6.40;100.00
62708;BME280;48769;51.624;5.886;2022-09-29T04:21:05;99856.69;;;6.36;100.00
62708;BME280;48769;51.624;5.886;2022-09-29T04:23:30;99861.34;;;6.30;100.00
62708;BME280;48769;51.624;5.886;2022-09-29T04:25:56;99856.09;;;6.30;100.00
62708;BME280;48769;51.624;5.886;2022-09-29T04:28:22;99866.59;;;6.30;100.00
62708;BME280;48769;51.624;5.886;2022-09-29T04:30:47;99856.25;;;6.27;100.00
62708;BME280;48769;51.624;5.886;2022-09-29T04:33:13;99865.81;;;6.28;100.00
62708;BME280;48769;51.624;5.886;2022-09-29T04:35:38;99857.94;;;6.28;100.00
62708;BME280;48769;51.624;5.886;2022-09-29T04:38:04;99859.78;;;6.26;100.00
62708;BME280;48769;51.624;5.886;2022-09-29T04:40:29;99871.97;;;6.27;100.00
62708;BME280;48769;51.624;5.886;2022-09-29T04:42:55;99878.13;;;6.26;100.00
62708;BME280;48769;51.624;5.886;2022-09-29T04:45:20;99875.50;;;6.26;100.00
62708;BME280;48769;51.624;5.886;2022-09-29T04:47:45;99875.50;;;6.26;100.00
62708;BME280;48769;51.624;5.886;2022-09-29T04:50:11;99873.81;;;6.25;100.00
62708;BME280;48769;51.624;5.886;2022-09-29T04:52:36;99873.97;;;6.22;100.00
62708;BME280;48769;51.624;5.886;2022-09-29T04:55:03;99885.31;;;6.23;100.00
62708;BME280;48769;51.624;5.886;2022-09-29T04:57:28;99881.03;;;6.20;100.00
62708;BME280;48769;51.624;5.886;2022-09-29T04:59:53;99883.66;;;6.20;100.00
62708;BME280;48769;51.624;5.886;2022-09-29T05:02:20;99885.53;;;6.18;100.00
62708;BME280;48769;51.624;5.886;2022-09-29T05:04:45;99884.75;;;6.16;100.00
62708;BME280;48769;51.624;5.886;2022-09-29T05:07:13;99889.22;;;6.14;100.00
62708;BME280;48769;51.624;5.886;2022-09-29T05:09:38;99884.91;;;6.13;100.00
62708;BME280;48769;51.624;5.886;2022-09-29T05:12:04;99892.00;;;6.11;100.00
62708;BME280;48769;51.624;5.886;2022-09-29T05:14:29;99890.28;;;6.10;100.00
62708;BME280;48769;51.624;5.886;2022-09-29T05:16:55;99902.66;;;6.08;100.00
62708;BME280;48769;51.624;5.886;2022-09-29T05:19:21;99894.84;;;6.06;100.00
62708;BME280;48769;51.624;5.886;2022-09-29T05:21:46;99899.22;;;6.06;100.00
62708;BME280;48769;51.624;5.886;2022-09-29T05:24:12;99902.84;;;6.03;100.00
62708;BME280;48769;51.624;5.886;2022-09-29T05:26:37;99908.19;;;6.02;100.00
62708;BME280;48769;51.624;5.886;2022-09-29T05:29:02;99904.63;;;6.03;100.00
62708;BME280;48769;51.624;5.886;2022-09-29T05:31:28;99906.41;;;6.02;100.00
62708;BME280;48769;51.624;5.886;2022-09-29T05:33:56;99907.34;;;6.01;100.00
62708;BME280;48769;51.624;5.886;2022-09-29T05:36:22;99908.19;;;6.02;100.00
62708;BME280;48769;51.624;5.886;2022-09-29T05:38:48;99913.41;;;6.02;100.00
62708;BME280;48769;51.624;5.886;2022-09-29T05:41:14;99919.66;;;5.99;100.00
62708;BME280;48769;51.624;5.886;2022-09-29T05:43:47;99928.44;;;5.98;100.00
62708;BME280;48769;51.624;5.886;2022-09-29T05:46:12;99924.06;;;5.99;100.00
62708;BME280;48769;51.624;5.886;2022-09-29T05:48:38;99920.50;;;6.00;100.00
62708;BME280;48769;51.624;5.886;2022-09-29T05:51:09;99930.06;;;6.01;100.00
62708;BME280;48769;51.624;5.886;2022-09-29T05:53:34;99933.47;;;6.03;100.00
62708;BME280;48769;51.624;5.886;2022-09-29T05:56:17;99932.53;;;6.04;100.00
62708;BME280;48769;51.624;5.886;2022-09-29T05:58:45;99928.91;;;6.06;100.00
62708;BME280;48769;51.624;5.886;2022-09-29T06:01:13;99937.63;;;6.07;100.00
62708;BME280;48769;51.624;5.886;2022-09-29T06:03:39;99939.34;;;6.08;100.00
62708;BME280;48769;51.624;5.886;2022-09-29T06:08:31;99941.59;;;6.16;100.00
62708;BME280;48769;51.624;5.886;2022-09-29T06:11:17;99935.38;;;6.18;100.00
62708;BME280;48769;51.624;5.886;2022-09-29T06:13:44;99935.06;;;6.24;100.00
62708;BME280;48769;51.624;5.886;2022-09-29T06:16:11;99938.44;;;6.26;100.00
62708;BME280;48769;51.624;5.886;2022-09-29T06:18:37;99944.41;;;6.30;100.00
62708;BME280;48769;51.624;5.886;2022-09-29T06:21:04;99951.13;;;6.36;100.00
62708;BME280;48769;51.624;5.886;2022-09-29T06:23:30;99952.66;;;6.40;100.00
62708;BME280;48769;51.624;5.886;2022-09-29T06:25:57;99955.94;;;6.45;100.00
62708;BME280;48769;51.624;5.886;2022-09-29T06:28:23;99947.28;;;6.43;100.00
62708;BME280;48769;51.624;5.886;2022-09-29T06:30:48;99961.31;;;6.42;100.00
62708;BME280;48769;51.624;5.886;2022-09-29T06:33:14;99959.63;;;6.41;100.00
62708;BME280;48769;51.624;5.886;2022-09-29T06:35:45;99955.94;;;6.45;100.00
62708;BME280;48769;51.624;5.886;2022-09-29T06:38:29;99955.00;;;6.46;100.00
62708;BME280;48769;51.624;5.886;2022-09-29T06:40:55;99961.63;;;6.53;100.00
62708;BME280;48769;51.624;5.886;2022-09-29T06:43:20;99960.44;;;6.60;100.00
62708;BME280;48769;51.624;5.886;2022-09-29T06:45:45;99960.91;;;6.68;100.00
62708;BME280;48769;51.624;5.886;2022-09-29T06:48:11;99967.53;;;6.75;100.00
62708;BME280;48769;51.624;5.886;2022-09-29T06:50:36;99972.41;;;6.83;100.00
62708;BME280;48769;51.624;5.886;2022-09-29T06:53:01;99968.84;;;6.84;100.00
62708;BME280;48769;51.624;5.886;2022-09-29T06:55:27;99972.03;;;6.91;100.00
62708;BME280;48769;51.624;5.886;2022-09-29T06:57:53;99971.41;;;7.03;100.00
62708;BME280;48769;51.624;5.886;2022-09-29T07:00:18;99977.03;;;7.13;100.00
62708;BME280;48769;51.624;5.886;2022-09-29T07:02:44;99977.25;;;7.25;100.00
62708;BME280;48769;51.624;5.886;2022-09-29T07:05:11;99980.94;;;7.39;100.00
62708;BME280;48769;51.624;5.886;2022-09-29T07:07:36;99985.09;;;7.43;100.00
62708;BME280;48769;51.624;5.886;2022-09-29T07:10:01;99980.75;;;7.59;100.00
62708;BME280;48769;51.624;5.886;2022-09-29T07:12:27;99982.63;;;7.57;100.00
62708;BME280;48769;51.624;5.886;2022-09-29T07:14:53;99992.31;;;7.72;100.00
62708;BME280;48769;51.624;5.886;2022-09-29T07:17:18;99988.09;;;7.86;100.00
62708;BME280;48769;51.624;5.886;2022-09-29T07:19:43;99990.38;;;7.92;100.00
62708;BME280;48769;51.624;5.886;2022-09-29T07:22:09;99995.34;;;8.14;100.00
62708;BME280;48769;51.624;5.886;2022-09-29T07:24:35;100002.53;;;8.74;100.00
62708;BME280;48769;51.624;5.886;2022-09-29T07:27:00;100006.50;;;9.55;100.00
62708;BME280;48769;51.624;5.886;2022-09-29T07:29:25;100000.06;;;9.31;100.00
62708;BME280;48769;51.624;5.886;2022-09-29T07:31:51;100005.69;;;9.39;100.00
62708;BME280;48769;51.624;5.886;2022-09-29T07:34:17;100002.91;;;9.56;100.00
62708;BME280;48769;51.624;5.886;2022-09-29T07:36:42;100007.78;;;10.20;100.00
62708;BME280;48769;51.624;5.886;2022-09-29T07:39:08;100007.09;;;12.14;100.00
62708;BME280;48769;51.624;5.886;2022-09-29T07:41:33;99994.94;;;13.54;100.00
62708;BME280;48769;51.624;5.886;2022-09-29T07:43:58;100002.22;;;13.86;100.00
62708;BME280;48769;51.624;5.886;2022-09-29T07:46:24;100003.34;;;14.60;100.00
62708;BME280;48769;51.624;5.886;2022-09-29T07:48:49;99994.00;;;14.98;100.00
62708;BME280;48769;51.624;5.886;2022-09-29T07:51:17;99984.44;;;15.70;100.00
62708;BME280;48769;51.624;5.886;2022-09-29T07:53:43;99981.28;;;16.35;100.00
62708;BME280;48769;51.624;5.886;2022-09-29T07:56:11;99979.09;;;17.18;99.81
62708;BME280;48769;51.624;5.886;2022-09-29T07:58:38;99976.56;;;17.83;98.29
62708;BME280;48769;51.624;5.886;2022-09-29T08:01:06;99972.72;;;18.86;93.86
62708;BME280;48769;51.624;5.886;2022-09-29T08:03:34;99970.25;;;18.93;88.63
62708;BME280;48769;51.624;5.886;2022-09-29T08:06:00;99974.66;;;19.46;85.07
62708;BME280;48769;51.624;5.886;2022-09-29T08:08:25;99973.28;;;19.94;83.64
62708;BME280;48769;51.624;5.886;2022-09-29T08:10:51;99976.22;;;20.17;82.39
62708;BME280;48769;51.624;5.886;2022-09-29T08:13:16;99979.31;;;20.39;80.24
62708;BME280;48769;51.624;5.886;2022-09-29T08:15:42;99988.63;;;20.10;79.44
62708;BME280;48769;51.624;5.886;2022-09-29T08:18:07;99979.56;;;20.11;78.80
62708;BME280;48769;51.624;5.886;2022-09-29T08:20:34;99989.53;;;18.97;80.67
62708;BME280;48769;51.624;5.886;2022-09-29T08:23:00;100003.56;;;16.85;87.89
62708;BME280;48769;51.624;5.886;2022-09-29T08:25:25;100027.75;;;16.02;98.29
62708;BME280;48769;51.624;5.886;2022-09-29T08:27:51;100023.22;;;15.93;99.38
62708;BME280;48769;51.624;5.886;2022-09-29T08:30:17;100036.47;;;15.62;100.00
62708;BME280;48769;51.624;5.886;2022-09-29T08:32:42;100041.53;;;15.24;100.00
62708;BME280;48769;51.624;5.886;2022-09-29T08:35:08;100039.84;;;15.23;100.00
62708;BME280;48769;51.624;5.886;2022-09-29T08:37:34;100046.00;;;15.02;100.00
62708;BME280;48769;51.624;5.886;2022-09-29T08:39:59;100049.72;;;14.67;100.00
62708;BME280;48769;51.624;5.886;2022-09-29T08:45:10;100060.03;;;13.93;100.00
62708;BME280;48769;51.624;5.886;2022-09-29T08:47:42;100061.91;;;13.57;100.00
62708;BME280;48769;51.624;5.886;2022-09-29T08:50:21;100059.75;;;13.63;100.00
62708;BME280;48769;51.624;5.886;2022-09-29T08:52:53;100067.03;;;13.37;100.00
62708;BME280;48769;51.624;5.886;2022-09-29T08:57:47;100068.34;;;13.31;100.00
62708;BME280;48769;51.624;5.886;2022-09-29T09:00:14;100067.59;;;13.05;100.00
62708;BME280;48769;51.624;5.886;2022-09-29T09:02:56;100067.66;;;12.92;100.00
62708;BME280;48769;51.624;5.886;2022-09-29T09:05:47;100074.03;;;12.90;100.00
62708;BME280;48769;51.624;5.886;2022-09-29T09:13:51;100075.63;;;12.68;100.00
62708;BME280;48769;51.624;5.886;2022-09-29T09:16:32;100086.34;;;12.91;100.00
62708;BME280;48769;51.624;5.886;2022-09-29T09:24:46;100087.06;;;12.93;100.00
62708;BME280;48769;51.624;5.886;2022-09-29T09:27:15;100087.00;;;13.05;100.00
62708;BME280;48769;51.624;5.886;2022-09-29T09:29:43;100085.91;;;12.97;100.00
62708;BME280;48769;51.624;5.886;2022-09-29T09:32:15;100086.28;;;13.03;100.00
62708;BME280;48769;51.624;5.886;2022-09-29T09:34:53;100092.22;;;13.07;100.00
62708;BME280;48769;51.624;5.886;2022-09-29T09:37:33;100090.72;;;13.03;100.00
62708;BME280;48769;51.624;5.886;2022-09-29T09:40:15;100085.75;;;13.22;100.00
62708;BME280;48769;51.624;5.886;2022-09-29T09:42:47;100086.06;;;13.06;100.00
62708;BME280;48769;51.624;5.886;2022-09-29T09:45:26;100090.72;;;13.03;100.00
62708;BME280;48769;51.624;5.886;2022-09-29T09:47:59;100089.03;;;13.02;100.00
62708;BME280;48769;51.624;5.886;2022-09-29T09:50:26;100085.13;;;13.19;100.00
62708;BME280;48769;51.624;5.886;2022-09-29T09:52:58;100093.38;;;13.03;100.00
62708;BME280;48769;51.624;5.886;2022-09-29T09:55:26;100090.84;;;13.01;100.00
62708;BME280;48769;51.624;5.886;2022-09-29T10:00:42;100087.66;;;13.33;100.00
62708;BME280;48769;51.624;5.886;2022-09-29T10:03:09;100087.19;;;13.39;100.00
62708;BME280;48769;51.624;5.886;2022-09-29T10:05:40;100092.28;;;13.53;100.00
62708;BME280;48769;51.624;5.886;2022-09-29T10:08:11;100096.91;;;13.63;100.00
62708;BME280;48769;51.624;5.886;2022-09-29T10:10:39;100090.34;;;13.44;100.00
62708;BME280;48769;51.624;5.886;2022-09-29T10:13:10;100100.38;;;13.52;100.00
62708;BME280;48769;51.624;5.886;2022-09-29T10:18:17;100099.19;;;13.56;100.00
62708;BME280;48769;51.624;5.886;2022-09-29T10:20:44;100105.19;;;13.47;100.00
62708;BME280;48769;51.624;5.886;2022-09-29T10:23:32;100096.41;;;13.57;100.00
62708;BME280;48769;51.624;5.886;2022-09-29T10:28:59;100103.06;;;13.74;100.00
62708;BME280;48769;51.624;5.886;2022-09-29T10:31:32;100106.69;;;13.73;100.00
62708;BME280;48769;51.624;5.886;2022-09-29T10:34:22;100107.19;;;13.78;100.00
62708;BME280;48769;51.624;5.886;2022-09-29T10:37:05;100102.63;;;13.92;100.00
62708;BME280;48769;51.624;5.886;2022-09-29T10:39:41;100103.09;;;13.97;100.00
62708;BME280;48769;51.624;5.886;2022-09-29T10:44:50;100107.84;;;14.05;100.00
62708;BME280;48769;51.624;5.886;2022-09-29T10:47:16;100102.53;;;14.16;100.00
62708;BME280;48769;51.624;5.886;2022-09-29T10:49:41;100109.91;;;14.23;100.00
62708;BME280;48769;51.624;5.886;2022-09-29T10:52:21;100111.00;;;14.21;100.00
62708;BME280;48769;51.624;5.886;2022-09-29T10:54:56;100110.63;;;14.25;100.00
62708;BME280;48769;51.624;5.886;2022-09-29T10:57:25;100111.84;;;14.21;100.00
62708;BME280;48769;51.624;5.886;2022-09-29T10:59:52;100113.16;;;14.38;100.00
62708;BME280;48769;51.624;5.886;2022-09-29T11:02:31;100113.75;;;14.42;100.00
62708;BME280;48769;51.624;5.886;2022-09-29T11:05:01;100105.09;;;14.40;100.00
62708;BME280;48769;51.624;5.886;2022-09-29T11:07:27;100115.22;;;14.35;100.00
62708;BME280;48769;51.624;5.886;2022-09-29T11:09:53;100118.13;;;14.20;100.00
62708;BME280;48769;51.624;5.886;2022-09-29T11:12:37;100114.00;;;14.27;100.00
62708;BME280;48769;51.624;5.886;2022-09-29T11:15:25;100110.63;;;14.37;100.00
62708;BME280;48769;51.624;5.886;2022-09-29T11:17:51;100109.88;;;14.46;100.00
62708;BME280;48769;51.624;5.886;2022-09-29T11:20:17;100105.09;;;14.40;100.00
62708;BME280;48769;51.624;5.886;2022-09-29T11:25:38;100112.09;;;14.52;100.00
62708;BME280;48769;51.624;5.886;2022-09-29T11:34:27;100108.94;;;14.58;100.00
62708;BME280;48769;51.624;5.886;2022-09-29T11:37:09;100115.22;;;14.68;100.00
62708;BME280;48769;51.624;5.886;2022-09-29T11:39:57;100120.63;;;14.89;100.00
62708;BME280;48769;51.624;5.886;2022-09-29T11:45:10;100116.75;;;14.93;100.00
62708;BME280;48769;51.624;5.886;2022-09-29T12:03:55;100132.84;;;14.47;100.00
62708;BME280;48769;51.624;5.886;2022-09-29T12:06:41;100129.97;;;14.61;100.00
62708;BME280;48769;51.624;5.886;2022-09-29T12:15:06;100119.81;;;14.44;100.00
62708;BME280;48769;51.624;5.886;2022-09-29T12:17:43;100125.13;;;14.44;100.00
62708;BME280;48769;51.624;5.886;2022-09-29T12:20:18;100119.06;;;14.42;100.00
62708;BME280;48769;51.624;5.886;2022-09-29T12:22:47;100128.84;;;14.41;100.00
62708;BME280;48769;51.624;5.886;2022-09-29T12:25:16;100143.00;;;14.42;100.00
62708;BME280;48769;51.624;5.886;2022-09-29T12:27:44;100131.16;;;14.68;100.00
62708;BME280;48769;51.624;5.886;2022-09-29T12:30:22;100121.91;;;15.06;100.00
62708;BME280;48769;51.624;5.886;2022-09-29T12:33:19;100111.69;;;15.23;100.00
62708;BME280;48769;51.624;5.886;2022-09-29T12:41:48;100100.09;;;15.65;97.09
62708;BME280;48769;51.624;5.886;2022-09-29T12:44:26;100105.47;;;15.86;96.85
62708;BME280;48769;51.624;5.886;2022-09-29T12:47:05;100101.38;;;16.03;95.60
62708;BME280;48769;51.624;5.886;2022-09-29T12:53:02;100088.75;;;16.36;93.38
62708;BME280;48769;51.624;5.886;2022-09-29T12:55:42;100092.59;;;16.53;93.17
62708;BME280;48769;51.624;5.886;2022-09-29T12:58:15;100096.19;;;16.82;93.73
62708;BME280;48769;51.624;5.886;2022-09-29T13:00:44;100107.06;;;17.00;96.41
62708;BME280;48769;51.624;5.886;2022-09-29T13:05:56;100090.22;;;17.29;89.68
62708;BME280;48769;51.624;5.886;2022-09-29T13:11:07;100093.56;;;17.41;91.71
62708;BME280;48769;51.624;5.886;2022-09-29T13:17:09;100085.50;;;18.64;80.26
62708;BME280;48769;51.624;5.886;2022-09-29T13:28:23;100077.09;;;19.22;73.21
62708;BME280;48769;51.624;5.886;2022-09-29T13:30:49;100090.06;;;18.81;76.81
62708;BME280;48769;51.624;5.886;2022-09-29T13:33:20;100099.72;;;18.37;78.12
62708;BME280;48769;51.624;5.886;2022-09-29T13:35:47;100098.47;;;17.94;79.35
62708;BME280;48769;51.624;5.886;2022-09-29T13:38:17;100092.25;;;17.74;77.56
62708;BME280;48769;51.624;5.886;2022-09-29T13:41:16;100097.53;;;17.37;78.13
62708;BME280;48769;51.624;5.886;2022-09-29T13:54:19;100116.16;;;16.48;80.45
62708;BME280;48769;51.624;5.886;2022-09-29T13:59:46;100122.84;;;16.11;85.80
62708;BME280;48769;51.624;5.886;2022-09-29T14:07:49;100146.28;;;15.87;90.05
62708;BME280;48769;51.624;5.886;2022-09-29T14:13:18;100141.53;;;15.91;90.48
62708;BME280;48769;51.624;5.886;2022-09-29T14:16:26;100141.72;;;15.78;88.01
62708;BME280;48769;51.624;5.886;2022-09-29T14:19:45;100142.97;;;15.74;87.22
62708;BME280;48769;51.624;5.886;2022-09-29T14:30:01;100147.81;;;15.69;87.93
62708;BME280;48769;51.624;5.886;2022-09-29T14:33:23;100159.66;;;15.64;88.89
62708;BME280;48769;51.624;5.886;2022-09-29T14:38:27;100161.16;;;15.57;91.17
62708;BME280;48769;51.624;5.886;2022-09-29T14:40:59;100165.09;;;15.63;93.28
62708;BME280;48769;51.624;5.886;2022-09-29T14:43:49;100172.16;;;15.64;90.15
62708;BME280;48769;51.624;5.886;2022-09-29T14:55:50;100160.25;;;15.36;84.93
62708;BME280;48769;51.624;5.886;2022-09-29T14:59:05;100171.06;;;15.34;88.09
62708;BME280;48769;51.624;5.886;2022-09-29T15:01:33;100170.91;;;15.36;90.40
62708;BME280;48769;51.624;5.886;2022-09-29T15:04:11;100178.66;;;15.39;91.73
62708;BME280;48769;51.624;5.886;2022-09-29T15:06:51;100179.38;;;15.41;93.29
62708;BME280;48769;51.624;5.886;2022-09-29T15:09:23;100188.28;;;15.51;94.44
62708;BME280;48769;51.624;5.886;2022-09-29T15:11:52;100184.31;;;15.46;93.73
62708;BME280;48769;51.624;5.886;2022-09-29T15:14:21;100186.88;;;15.47;91.46
62708;BME280;48769;51.624;5.886;2022-09-29T15:22:22;100191.66;;;15.53;92.42
62708;BME280;48769;51.624;5.886;2022-09-29T15:27:44;100190.97;;;15.40;92.14
62708;BME280;48769;51.624;5.886;2022-09-29T15:30:14;100195.84;;;15.35;92.03
62708;BME280;48769;51.624;5.886;2022-09-29T15:32:43;100202.59;;;15.39;95.33
62708;BME280;48769;51.624;5.886;2022-09-29T15:35:12;100202.41;;;15.31;95.11
62708;BME280;48769;51.624;5.886;2022-09-29T15:40:35;100207.28;;;15.14;95.43
62708;BME280;48769;51.624;5.886;2022-09-29T15:43:19;100208.84;;;15.06;95.42
62708;BME280;48769;51.624;5.886;2022-09-29T15:45:58;100214.66;;;15.00;98.40
62708;BME280;48769;51.624;5.886;2022-09-29T15:48:25;100222.75;;;14.98;100.00